首页
METAR-TAF:

METAR-TAF

机场 :

彭萨科拉, 佛罗里达州, 美国

纬度: 30-21-22N, 经度: 087-19-24W, 海拔: 9米

当前天气观测

该预报发布于14分钟前的03:08 UTC
风速15节,风向,有时为22节阵风
温度 10°C
湿度 82%
气压 1024 hPa
能見度: 16.1公里
少量云层高于1000英尺
阴天层高于1500英尺
小雨

METAR: KNPA 210308Z 36015G22KT 10SM -RA FEW010 OVC015 10/07 A3025 RMK AO2 P0001 T01000067 $

时间: 21:22 (03:22 UTC)

预报

预报有效从20日的 23点(UTC)到 21日的 23点(UTC)
风速11节,风向,有时为18节阵风
能见度10公里或以上
散云层高于900英尺
阴天层高于2000英尺
附近有阵雨
短暂存在
从 20日的 23点(UTC)到 21日的 05点(UTC)
能見度: 6000
阴天层高于900英尺
雨, 轻雾
从 21日的 0500点(UTC)
风速13节,风向,有时为22节阵风
能见度10公里或以上
多云层高于1000英尺
从 21日的 1200点(UTC)
风速15节,风向,有时为23节阵风
能见度10公里或以上
散云层高于1500英尺
从 21日的 1500点(UTC)
风速14节,风向,有时为20节阵风
能見度: 2112
天空无云

TAF: KNPA 2023/2123 35011G18KT 9999 VCSH SCT009 OVC020 QNH3004INS TEMPO 2023/2105 6000 RA BR OVC009 FM210500 36013G22KT 9999 BKN010 QNH3012INS FM211200 36015G23KT 9999 SCT015 QNH3025INS FM211500 01014G20KT 9999 SKC QNH3035INS AUTOMATED SENSOR METWATCH 2103 TIL 2112 T05/2113Z T12/2117Z FN20034

超过4000个机场的气象观测和天气预报(METAR&TAF报告)。

可查询的气象台以黄色和红色小点在地图上表示。

将鼠标移到小点上方,可查看气象台名称。

然后点击查看天气观测和预报。

如需切换地图:点击带黑十字的绿色按钮放大地图;点击带横线的绿色按钮缩小地图;或者点击绿色箭头查看邻近地区的地图。


METAR-TAF: